createdAt,value
2024-05-09T00:00:36.480Z,-12286.24
2024-05-09T00:03:07.420Z,-11687.85
2024-05-09T00:05:34.882Z,-11038.04
2024-05-09T00:08:02.104Z,-10568.07
2024-05-09T00:10:35.963Z,-10252.54
2024-05-09T00:13:06.424Z,-10288.83
2024-05-09T00:15:34.150Z,-10006.11
2024-05-09T00:18:01.842Z,-9676.24
2024-05-09T00:20:37.350Z,-9279.89
2024-05-09T00:23:09.720Z,-8814.31
2024-05-09T00:25:37.524Z,-7957.64
2024-05-09T00:28:05.503Z,-7166.88
2024-05-09T00:30:35.715Z,-6281.21
2024-05-09T00:33:05.707Z,-5164.44
2024-05-09T00:35:33.880Z,-3584.27
2024-05-09T00:38:01.116Z,-1884.66
2024-05-09T00:40:38.748Z,-218.34
2024-05-09T00:43:09.165Z,1537.85
2024-05-09T00:45:36.318Z,3698.23
2024-05-09T00:48:07.993Z,5614.36
2024-05-09T00:50:38.669Z,7555.16
2024-05-09T00:53:06.300Z,9856.80
2024-05-09T00:55:35.049Z,12218.05
2024-05-09T00:58:02.302Z,14350.61
2024-05-09T01:00:36.011Z,16289.13
2024-05-09T01:03:12.009Z,17903.41
2024-05-09T01:05:42.099Z,19693.84
2024-05-09T01:08:10.056Z,21388.12
2024-05-09T01:10:37.520Z,22954.21
2024-05-09T01:13:04.922Z,24564.19
2024-05-09T01:15:32.416Z,25968.99
2024-05-09T01:18:07.165Z,27439.04
2024-05-09T01:20:41.255Z,28724.36
2024-05-09T01:23:11.648Z,30010.46
2024-05-09T01:25:39.052Z,31588.58
2024-05-09T01:28:06.490Z,33202.89
2024-05-09T01:30:36.199Z,34452.93
2024-05-09T01:33:07.257Z,35365.35
2024-05-09T01:35:36.555Z,36255.30
2024-05-09T01:38:04.438Z,37413.65
2024-05-09T01:40:38.432Z,38629.85
2024-05-09T01:43:07.560Z,39579.26
2024-05-09T01:45:35.787Z,40920.15
2024-05-09T01:48:03.201Z,42214.94
2024-05-09T01:50:38.143Z,43487.45
2024-05-09T01:53:12.598Z,44544.98
2024-05-09T01:55:40.180Z,45865.59
2024-05-09T01:58:08.125Z,46564.27
2024-05-09T02:00:39.880Z,47006.38
2024-05-09T02:03:10.519Z,46864.10
2024-05-09T02:05:39.174Z,46599.14
2024-05-09T02:08:06.701Z,46233.89
2024-05-09T02:10:33.944Z,45876.51
2024-05-09T02:13:00.919Z,45561.88
2024-05-09T02:15:28.355Z,45134.82
2024-05-09T02:17:55.906Z,44795.96
2024-05-09T02:20:30.466Z,44594.23
2024-05-09T02:23:04.619Z,44353.79
2024-05-09T02:25:32.278Z,44756.02
2024-05-09T02:27:59.402Z,44967.56
2024-05-09T02:30:36.525Z,45290.38
2024-05-09T02:33:12.919Z,45200.73
2024-05-09T02:35:41.851Z,45654.00
2024-05-09T02:38:08.966Z,46313.08
2024-05-09T02:40:38.475Z,46815.10
2024-05-09T02:43:07.536Z,47001.68
2024-05-09T02:45:34.748Z,47425.80
2024-05-09T02:48:02.696Z,47839.76
2024-05-09T02:50:37.144Z,47967.95
2024-05-09T02:53:07.508Z,47748.05
2024-05-09T02:55:34.915Z,47904.04
2024-05-09T02:58:01.787Z,48045.18
2024-05-09T03:00:38.167Z,48248.67
2024-05-09T03:03:10.103Z,48028.77
2024-05-09T03:05:39.515Z,48394.15
2024-05-09T03:08:07.102Z,48761.93
2024-05-09T03:10:36.822Z,48977.60
2024-05-09T03:13:09.414Z,48830.16
2024-05-09T03:18:44.154Z,22116.00
2024-05-09T03:21:11.830Z,23766.57
2024-05-09T03:23:43.465Z,30840.86
2024-05-09T03:26:15.377Z,34374.91
2024-05-09T03:28:43.603Z,36469.93
2024-05-09T03:31:11.088Z,37887.96
2024-05-09T03:33:38.736Z,38796.84
2024-05-09T03:36:09.051Z,39323.73
2024-05-09T03:38:38.521Z,39428.96
2024-05-09T03:41:06.106Z,39428.16
2024-05-09T03:43:33.593Z,39167.62
2024-05-09T03:46:00.638Z,38659.52
2024-05-09T03:48:28.077Z,37792.09
2024-05-09T03:50:55.163Z,36471.39
2024-05-09T03:53:22.410Z,34951.84
2024-05-09T03:55:49.781Z,32967.31
2024-05-09T03:58:18.433Z,30335.46
2024-05-09T04:00:45.546Z,26639.99
2024-05-09T04:03:13.446Z,21616.42
2024-05-09T04:05:42.329Z,14334.21
2024-05-09T04:08:10.848Z,4638.68
2024-05-09T04:10:38.079Z,-7939.59
2024-05-09T04:13:05.208Z,-16421.54
2024-05-09T04:15:32.623Z,-17609.17
2024-05-09T04:18:00.025Z,-17609.17
2024-05-09T04:20:36.302Z,-17609.17
2024-05-09T04:23:08.058Z,-17609.17
2024-05-09T04:25:37.512Z,-17609.17
2024-05-09T04:28:05.177Z,-17609.17
2024-05-09T04:30:38.173Z,-17609.17
2024-05-09T04:33:09.518Z,-17609.17
2024-05-09T04:35:39.205Z,-17609.17
2024-05-09T04:38:06.716Z,-17609.17
2024-05-09T04:40:36.615Z,-17609.17
2024-05-09T04:43:05.582Z,-17609.17
2024-05-09T04:45:32.795Z,-17609.17
2024-05-09T04:47:59.980Z,-17609.17
2024-05-09T04:50:35.163Z,-17609.17
2024-05-09T04:53:07.607Z,-17609.17
2024-05-09T04:55:36.002Z,-17609.17
2024-05-09T04:58:03.305Z,-17609.17
2024-05-09T05:00:36.058Z,-17609.17
2024-05-09T05:03:13.101Z,-17114.79
2024-05-09T05:05:43.294Z,-13658.28
2024-05-09T05:08:11.861Z,-11583.18
2024-05-09T05:10:39.192Z,-6538.96
2024-05-09T05:13:15.246Z,-2429.10
2024-05-09T05:15:43.426Z,6348.72
2024-05-09T05:18:10.925Z,9975.03
2024-05-09T05:20:38.242Z,18084.68
2024-05-09T05:23:08.290Z,23914.99
2024-05-09T05:25:35.189Z,27360.26
2024-05-09T05:28:02.132Z,29736.42
2024-05-09T05:30:34.398Z,34027.73
2024-05-09T05:33:02.342Z,42424.83
2024-05-09T05:35:29.809Z,43746.23
2024-05-09T05:37:56.733Z,44246.38
2024-05-09T05:40:32.264Z,44912.30
2024-05-09T05:43:07.769Z,45956.04
2024-05-09T05:45:35.129Z,46561.49
2024-05-09T05:48:03.837Z,47037.69
2024-05-09T05:50:35.939Z,47212.90
2024-05-09T05:53:06.182Z,47499.84
2024-05-09T05:55:33.243Z,47642.13
2024-05-09T05:58:03.366Z,47732.30
2024-05-09T06:00:38.135Z,47816.59
2024-05-09T06:03:08.179Z,47890.29
2024-05-09T06:05:36.255Z,47974.57
2024-05-09T06:08:04.153Z,47996.53
2024-05-09T06:10:37.968Z,48021.63
2024-05-09T06:13:11.864Z,48034.17
2024-05-09T06:15:39.729Z,48061.61
2024-05-09T06:18:08.002Z,48063.57
2024-05-09T06:20:37.854Z,48080.43
2024-05-09T06:23:06.182Z,48091.01
2024-05-09T06:25:34.362Z,48097.29
2024-05-09T06:28:01.374Z,48080.43
2024-05-09T06:30:35.264Z,48081.61
2024-05-09T06:33:08.027Z,48085.14
2024-05-09T06:35:35.636Z,48080.82
2024-05-09T06:38:03.167Z,48103.56
2024-05-09T06:40:37.181Z,48094.15
2024-05-09T06:43:17.604Z,48086.71
2024-05-09T06:45:49.442Z,48011.82
2024-05-09T06:48:20.446Z,47925.96
2024-05-09T06:50:48.225Z,47912.63
2024-05-09T06:53:15.927Z,47925.18
2024-05-09T06:55:42.969Z,47889.51
2024-05-09T06:58:10.009Z,47882.84
2024-05-09T07:00:40.063Z,47860.10
2024-05-09T07:03:15.373Z,47803.65
2024-05-09T07:05:45.223Z,47764.05
2024-05-09T07:08:13.453Z,47751.51
2024-05-09T07:10:42.139Z,47747.59
2024-05-09T07:13:09.986Z,47698.20
2024-05-09T07:15:37.383Z,47640.17
2024-05-09T07:18:22.782Z,47606.07
2024-05-09T07:20:50.681Z,47580.20
2024-05-09T07:23:18.214Z,47562.55
2024-05-09T07:25:45.726Z,47516.69
2024-05-09T07:28:16.820Z,47491.99
2024-05-09T07:30:44.020Z,47469.65
2024-05-09T07:33:22.502Z,47457.50
2024-05-09T07:35:51.113Z,47431.23
2024-05-09T07:38:18.254Z,47455.93
2024-05-09T07:40:45.810Z,47464.94
2024-05-09T07:43:13.527Z,47435.54
2024-05-09T07:45:50.413Z,47422.21
2024-05-09T07:52:38.305Z,47386.54
2024-05-09T07:53:46.332Z,47398.30
2024-05-09T07:56:17.515Z,47397.52
2024-05-09T07:58:45.564Z,47373.21
2024-05-09T08:01:12.907Z,47377.53
2024-05-09T08:03:40.971Z,47375.57
2024-05-09T08:06:08.111Z,47359.11
2024-05-09T08:08:36.058Z,47327.75
2024-05-09T08:11:03.146Z,47337.94
2024-05-09T08:13:30.668Z,47321.87
2024-05-09T08:15:57.651Z,47335.98
2024-05-09T08:18:24.781Z,47315.20
2024-05-09T08:20:52.122Z,47276.40
2024-05-09T08:23:19.191Z,47263.86
2024-05-09T08:25:47.413Z,47273.65
2024-05-09T08:28:14.709Z,47256.80
2024-05-09T08:30:42.428Z,47250.92
2024-05-09T08:33:09.558Z,47262.68
2024-05-09T08:35:37.483Z,47277.97
2024-05-09T08:38:06.089Z,47271.70
2024-05-09T08:40:36.106Z,47288.55
2024-05-09T08:43:08.627Z,47272.48
2024-05-09T08:45:41.490Z,47275.61
2024-05-09T08:48:08.669Z,47272.09
2024-05-09T08:50:39.266Z,47274.83
2024-05-09T08:53:08.043Z,47303.45
2024-05-09T08:55:38.131Z,47313.64
2024-05-09T08:58:07.418Z,47283.46
2024-05-09T09:00:37.322Z,47214.07
2024-05-09T09:03:06.350Z,47184.28
2024-05-09T09:05:33.847Z,47159.20
2024-05-09T09:08:03.940Z,47185.46
2024-05-09T09:10:32.425Z,47235.63
2024-05-09T09:13:04.031Z,47220.73
2024-05-09T09:15:31.079Z,47203.88
2024-05-09T09:17:58.659Z,47185.07
2024-05-09T09:20:33.526Z,47166.64
2024-05-09T09:23:03.426Z,47116.08
2024-05-09T09:25:30.688Z,47103.93
2024-05-09T09:27:57.809Z,47080.41
2024-05-09T09:30:36.027Z,47077.67
2024-05-09T09:33:06.266Z,47079.23
2024-05-09T09:35:35.262Z,47087.86
2024-05-09T09:38:02.906Z,47080.41
2024-05-09T09:40:35.898Z,47077.67
2024-05-09T09:43:08.772Z,47085.51
2024-05-09T09:45:36.004Z,47083.55
2024-05-09T09:48:05.057Z,47078.45
2024-05-09T09:50:34.814Z,47092.96
2024-05-09T09:53:03.467Z,47063.95
2024-05-09T09:55:32.047Z,47051.41
2024-05-09T09:57:59.064Z,47051.41
2024-05-09T10:00:32.050Z,47032.59
2024-05-09T10:03:01.707Z,47023.97
2024-05-09T10:05:29.785Z,47020.05
2024-05-09T10:07:56.949Z,47011.82
2024-05-09T10:10:31.449Z,47009.86
2024-05-09T10:13:03.639Z,47021.62
2024-05-09T10:15:46.217Z,47018.88
2024-05-09T10:18:14.524Z,47007.90
2024-05-09T10:20:45.634Z,47015.35
2024-05-09T10:23:23.124Z,47017.70
2024-05-09T10:26:04.203Z,47000.84
2024-05-09T10:28:32.639Z,46996.93
2024-05-09T10:31:17.755Z,47004.37
2024-05-09T10:33:47.456Z,46985.16
2024-05-09T10:36:18.593Z,47001.24
2024-05-09T10:38:45.645Z,46994.97
2024-05-09T10:41:12.582Z,47007.12
2024-05-09T10:43:43.018Z,47005.94
2024-05-09T10:46:10.567Z,46992.61
2024-05-09T10:48:38.431Z,46981.64
2024-05-09T10:51:05.585Z,46989.87
2024-05-09T10:53:32.392Z,46973.02
2024-05-09T10:55:59.997Z,46975.37
2024-05-09T10:58:27.543Z,46990.66
2024-05-09T11:00:57.713Z,47000.84
2024-05-09T11:03:24.857Z,46995.75
2024-05-09T11:05:52.344Z,46982.81
2024-05-09T11:08:21.565Z,47005.16
2024-05-09T11:10:50.386Z,46994.57
2024-05-09T11:13:30.789Z,46983.60
2024-05-09T11:16:01.451Z,46967.92
2024-05-09T11:18:32.323Z,46960.47
2024-05-09T11:21:03.340Z,46960.08
2024-05-09T11:23:31.106Z,46965.96
2024-05-09T11:25:58.259Z,46947.54
2024-05-09T11:28:27.645Z,46949.50
2024-05-09T11:31:04.790Z,46934.61
2024-05-09T11:33:31.768Z,46925.20
2024-05-09T11:35:58.825Z,46925.98
2024-05-09T11:38:25.962Z,46913.83
2024-05-09T11:40:52.945Z,46897.76
2024-05-09T11:43:20.494Z,46922.45
2024-05-09T11:45:47.481Z,46925.20
2024-05-09T11:48:14.689Z,46944.79
2024-05-09T11:50:42.025Z,46961.65
2024-05-09T11:53:09.093Z,46925.98
2024-05-09T11:55:36.070Z,46917.36
2024-05-09T11:58:04.044Z,46901.29
2024-05-09T12:00:36.674Z,46896.98
2024-05-09T12:03:06.087Z,46917.75
2024-05-09T12:05:34.151Z,46906.78
2024-05-09T12:08:01.828Z,46904.03
2024-05-09T12:10:33.787Z,46909.91
2024-05-09T12:13:04.365Z,46898.93
2024-05-09T12:15:35.236Z,46906.38
2024-05-09T12:18:03.926Z,46920.10
2024-05-09T12:20:36.967Z,46918.54
2024-05-09T12:23:07.220Z,46877.38
2024-05-09T12:25:35.692Z,46890.71
2024-05-09T12:28:03.436Z,46890.32
2024-05-09T12:30:36.707Z,46898.55
2024-05-09T12:33:11.295Z,46907.17
2024-05-09T12:35:39.550Z,46918.93
2024-05-09T12:38:06.467Z,46903.25
2024-05-09T12:40:37.267Z,46909.91
2024-05-09T12:43:06.766Z,46884.44
2024-05-09T12:45:34.285Z,46872.68
2024-05-09T12:48:01.515Z,46883.26
2024-05-09T12:50:33.275Z,46880.52
2024-05-09T12:53:02.456Z,46865.23
2024-05-09T12:55:37.153Z,46883.65
2024-05-09T12:58:13.075Z,46876.99
2024-05-09T13:00:40.388Z,46889.53
2024-05-09T13:03:07.509Z,46893.45
2024-05-09T13:05:35.163Z,46874.64
2024-05-09T13:08:03.046Z,46867.98
2024-05-09T13:10:32.772Z,46887.96
2024-05-09T13:13:01.621Z,46891.49
2024-05-09T13:15:30.029Z,46887.18
2024-05-09T13:18:00.254Z,46885.22
2024-05-09T13:20:33.747Z,46883.26
2024-05-09T13:23:03.456Z,46868.76
2024-05-09T13:25:30.787Z,46867.59
2024-05-09T13:27:57.966Z,46866.41
2024-05-09T13:30:34.348Z,46892.27
2024-05-09T13:33:07.203Z,46908.73
2024-05-09T13:35:35.579Z,46911.87
2024-05-09T13:38:04.267Z,46934.60
2024-05-09T13:40:35.230Z,46941.66
2024-05-09T13:43:04.683Z,46949.50
2024-05-09T13:45:33.206Z,46953.02
2024-05-09T13:48:01.505Z,46945.98
2024-05-09T13:50:35.546Z,46938.92
2024-05-09T13:53:06.337Z,46957.34
2024-05-09T13:55:36.598Z,46937.74
2024-05-09T13:58:03.869Z,46939.31
2024-05-09T14:00:42.618Z,46931.47
2024-05-09T14:03:14.811Z,46951.46
2024-05-09T14:05:42.678Z,46948.71
2024-05-09T14:08:09.859Z,46917.75
2024-05-09T14:10:42.929Z,46896.59
2024-05-09T14:13:10.178Z,46863.27
2024-05-09T14:15:37.272Z,46859.35
2024-05-09T14:18:04.819Z,46846.81
2024-05-09T14:20:32.619Z,46837.80
2024-05-09T14:23:00.690Z,46843.68
2024-05-09T14:25:29.260Z,46836.62
2024-05-09T14:27:59.168Z,46829.96
2024-05-09T14:30:34.372Z,46817.41
2024-05-09T14:33:06.071Z,46812.32
2024-05-09T14:35:34.017Z,46818.98
2024-05-09T14:38:01.177Z,46811.54
2024-05-09T14:40:39.914Z,46801.74
2024-05-09T14:43:11.110Z,46807.22
2024-05-09T14:45:38.395Z,46810.36
2024-05-09T14:48:06.372Z,46802.52
2024-05-09T14:50:37.926Z,46808.79
2024-05-09T14:53:07.835Z,46810.75
2024-05-09T14:55:36.705Z,46802.52
2024-05-09T14:58:05.755Z,46803.30
2024-05-09T15:00:37.850Z,46814.28
2024-05-09T15:03:06.176Z,46820.16
2024-05-09T15:05:33.594Z,46831.52
2024-05-09T15:08:00.545Z,46845.64
2024-05-09T15:10:34.327Z,46869.93
2024-05-09T15:13:04.050Z,46875.43
2024-05-09T15:15:31.615Z,46869.54
2024-05-09T15:17:58.925Z,46826.82
2024-05-09T15:20:33.132Z,46819.77
2024-05-09T15:23:04.192Z,46807.62
2024-05-09T15:25:32.806Z,46812.32
2024-05-09T15:27:59.931Z,46805.66
2024-05-09T15:30:31.404Z,46808.01
2024-05-09T15:33:02.770Z,46795.46
2024-05-09T15:36:28.036Z,46759.02
2024-05-09T15:38:55.917Z,46802.91
2024-05-09T15:41:24.181Z,46779.01
2024-05-09T15:43:51.735Z,46793.11
2024-05-09T15:46:19.295Z,46780.57
2024-05-09T15:48:47.670Z,46792.73
2024-05-09T15:51:15.339Z,46791.94
2024-05-09T15:53:42.910Z,46787.63
2024-05-09T15:56:11.064Z,46783.71
2024-05-09T15:58:38.522Z,46786.06
2024-05-09T16:01:06.460Z,46779.79
2024-05-09T16:03:34.377Z,46777.44
2024-05-09T16:06:02.722Z,46761.37
2024-05-09T16:08:30.495Z,46774.30
2024-05-09T16:10:58.283Z,46756.66
2024-05-09T16:13:25.954Z,46747.65
2024-05-09T16:15:53.766Z,46748.82
2024-05-09T16:18:21.490Z,46744.52
2024-05-09T16:20:50.282Z,46753.53
2024-05-09T16:23:18.202Z,46758.24
2024-05-09T16:25:47.792Z,46755.10
2024-05-09T16:28:15.823Z,46748.43
2024-05-09T16:30:43.503Z,46745.30
2024-05-09T16:33:12.003Z,46748.43
2024-05-09T16:35:39.995Z,46760.59
2024-05-09T16:38:07.794Z,46768.43
2024-05-09T16:40:39.801Z,46775.48
2024-05-09T16:43:10.209Z,46781.75
2024-05-09T16:45:44.512Z,46802.91
2024-05-09T16:48:13.423Z,46806.45
2024-05-09T16:50:41.226Z,46814.28
2024-05-09T16:53:08.880Z,46838.19
2024-05-09T16:55:36.857Z,46840.54
2024-05-09T16:58:06.500Z,46845.24
2024-05-09T17:00:40.837Z,46859.35
2024-05-09T17:03:15.583Z,46858.57
2024-05-09T17:05:46.764Z,46847.59
2024-05-09T17:08:16.444Z,46854.26
2024-05-09T17:10:45.583Z,46856.22
2024-05-09T17:13:13.372Z,46843.68
2024-05-09T17:15:41.404Z,46849.95
2024-05-09T17:18:09.812Z,46848.38
2024-05-09T17:20:38.011Z,46855.04
2024-05-09T17:23:15.206Z,46853.08
2024-05-09T17:25:43.381Z,46857.39
2024-05-09T17:28:11.600Z,46849.95
2024-05-09T17:30:41.721Z,46860.13
2024-05-09T17:33:11.383Z,46870.72
2024-05-09T17:35:39.852Z,46873.46
2024-05-09T17:38:07.513Z,46880.91
2024-05-09T17:40:37.363Z,46871.89
2024-05-09T17:43:08.383Z,46876.20
2024-05-09T17:45:39.349Z,46881.69
2024-05-09T17:48:09.830Z,46888.36
2024-05-09T17:50:38.635Z,46887.57
2024-05-09T17:53:07.121Z,46897.76
2024-05-09T17:55:35.326Z,46914.62
2024-05-09T17:58:06.813Z,46921.67
2024-05-09T18:00:39.421Z,46946.76
2024-05-09T18:03:11.984Z,46973.80
2024-05-09T18:05:41.625Z,46982.81
2024-05-09T18:08:09.888Z,47012.21
2024-05-09T18:10:40.582Z,47037.69
2024-05-09T18:13:09.110Z,47029.07
2024-05-09T18:15:37.600Z,47083.94
2024-05-09T18:18:05.994Z,47076.10
2024-05-09T18:20:41.790Z,47091.39
2024-05-09T18:23:14.654Z,47125.49
2024-05-09T18:25:43.495Z,47136.07
2024-05-09T18:28:11.185Z,47146.65
2024-05-09T18:30:39.807Z,47230.54
2024-05-09T18:33:09.918Z,47251.71
2024-05-09T18:35:37.813Z,47299.13
2024-05-09T18:38:05.735Z,47198.79
2024-05-09T18:40:36.477Z,47149.40
2024-05-09T18:43:07.604Z,47116.47
2024-05-09T18:45:38.134Z,47105.10
2024-05-09T18:48:08.374Z,47075.32
2024-05-09T18:50:39.948Z,47064.73
2024-05-09T18:53:10.354Z,47065.13
2024-05-09T18:55:38.661Z,47152.14
2024-05-09T18:58:06.693Z,47229.75
2024-05-09T19:00:37.885Z,47325.01
2024-05-09T19:03:09.429Z,47361.06
2024-05-09T19:05:39.771Z,47336.37
2024-05-09T19:08:08.545Z,47339.51
2024-05-09T19:10:39.611Z,47491.60
2024-05-09T19:13:13.017Z,47935.38
2024-05-09T19:15:42.759Z,48489.38
2024-05-09T19:18:12.515Z,48250.60
2024-05-09T19:20:40.697Z,44251.81
2024-05-09T19:23:08.447Z,18669.29
2024-05-09T19:25:36.575Z,-6784.15
2024-05-09T19:28:05.492Z,-16867.98
2024-05-09T19:30:39.047Z,-17609.17
2024-05-09T19:33:13.565Z,-17609.17
2024-05-09T19:35:42.964Z,-17609.17
2024-05-09T19:38:11.809Z,-17609.17
2024-05-09T19:40:39.444Z,-17609.17
2024-05-09T19:43:07.306Z,-17609.17
2024-05-09T19:45:36.151Z,-17609.17
2024-05-09T19:48:05.353Z,-17609.17
2024-05-09T19:50:41.253Z,-17609.17
2024-05-09T19:53:14.731Z,-17609.17
2024-05-09T19:55:42.827Z,-17609.17
2024-05-09T19:58:11.918Z,-17609.17
2024-05-09T20:00:42.684Z,-17609.17
2024-05-09T20:03:12.731Z,-17609.17
2024-05-09T20:05:42.950Z,-17609.17
2024-05-09T20:08:10.899Z,-17609.17
2024-05-09T20:10:39.071Z,-17609.17
2024-05-09T20:13:08.217Z,-17609.17
2024-05-09T20:15:37.818Z,-17609.17
2024-05-09T20:18:06.723Z,-17609.17
2024-05-09T20:20:39.302Z,-17609.17
2024-05-09T20:23:13.069Z,-17609.17
2024-05-09T20:25:41.803Z,-17609.17
2024-05-09T20:28:10.670Z,-17609.17
2024-05-09T20:30:38.838Z,-17609.17
2024-05-09T20:33:07.826Z,-17609.17
2024-05-09T20:35:36.683Z,-17609.17
2024-05-09T20:38:05.240Z,-17609.17
2024-05-09T20:40:36.747Z,-17609.17
2024-05-09T20:43:08.053Z,-17609.17
2024-05-09T20:45:36.368Z,-17609.17
2024-05-09T20:48:04.964Z,-17609.17
2024-05-09T20:50:38.532Z,-17609.17
2024-05-09T20:53:10.447Z,-17609.17
2024-05-09T20:55:38.414Z,-17609.17
2024-05-09T20:58:06.047Z,-17609.17
2024-05-09T21:00:39.575Z,-17609.17
2024-05-09T21:03:11.491Z,-17609.17
2024-05-09T21:05:39.996Z,-17609.17
2024-05-09T21:08:08.188Z,-17609.17
2024-05-09T21:10:36.551Z,-17609.17
2024-05-09T21:13:05.855Z,-17609.17
2024-05-09T21:15:34.302Z,-17609.17
2024-05-09T21:18:02.052Z,-17609.17
2024-05-09T21:20:32.569Z,-17609.17
2024-05-09T21:23:01.605Z,-17609.17
2024-05-09T21:25:29.974Z,-17609.17
2024-05-09T21:27:57.811Z,-17609.17
2024-05-09T21:30:32.922Z,-17609.17
2024-05-09T21:33:09.267Z,-17609.17
2024-05-09T21:35:37.989Z,-17609.17
2024-05-09T21:38:05.958Z,-17609.17
2024-05-09T21:40:35.828Z,-17609.17
2024-05-09T21:43:06.251Z,-17609.17
2024-05-09T21:45:34.515Z,-17609.17
2024-05-09T21:48:06.246Z,-17609.17
2024-05-09T21:50:39.838Z,-17609.17
2024-05-09T21:53:13.433Z,-17609.17
2024-05-09T21:55:42.386Z,-17609.17
2024-05-09T21:58:12.180Z,-17609.17
2024-05-09T22:00:42.811Z,-17609.17
2024-05-09T22:03:11.692Z,-17609.17
2024-05-09T22:05:41.884Z,-17609.17
2024-05-09T22:08:10.530Z,-17609.17
2024-05-09T22:10:38.051Z,-17609.17
2024-05-09T22:13:06.603Z,-17609.17
2024-05-09T22:15:36.165Z,-17609.17
2024-05-09T22:18:05.367Z,-17609.17
2024-05-09T22:20:37.510Z,-17609.17
2024-05-09T22:23:08.285Z,-17609.17
2024-05-09T22:25:37.256Z,-17609.17
2024-05-09T22:28:05.584Z,-17609.17
2024-05-09T22:30:37.342Z,-17609.17
2024-05-09T22:33:08.489Z,-17609.17
2024-05-09T22:35:37.125Z,-17609.17
2024-05-09T22:38:04.720Z,-17609.17
2024-05-09T22:40:41.988Z,-17609.17
2024-05-09T22:43:23.810Z,-17609.17
2024-05-09T22:45:54.925Z,-17609.17
2024-05-09T22:48:24.600Z,-17609.17
2024-05-09T22:50:53.733Z,-17609.17
2024-05-09T22:53:22.656Z,-17609.17
2024-05-09T22:55:50.161Z,-17609.17
2024-05-09T22:58:18.382Z,-17609.17
2024-05-09T23:00:46.129Z,-17609.17
2024-05-09T23:03:16.605Z,-17609.17
2024-05-09T23:05:44.496Z,-17609.17
2024-05-09T23:08:12.160Z,-17609.17
2024-05-09T23:10:39.771Z,-17609.17
2024-05-09T23:13:08.168Z,-17609.17
2024-05-09T23:15:38.466Z,-17609.17
2024-05-09T23:18:06.844Z,-17609.17
2024-05-09T23:20:38.510Z,-17609.17
2024-05-09T23:23:08.487Z,-17609.17
2024-05-09T23:25:36.785Z,-17609.17
2024-05-09T23:28:05.366Z,-17609.17
2024-05-09T23:30:37.880Z,-17609.17
2024-05-09T23:33:10.024Z,-17609.17
2024-05-09T23:35:38.461Z,-17609.17
2024-05-09T23:38:05.907Z,-17609.17
2024-05-09T23:40:39.342Z,-17609.17
2024-05-09T23:43:10.168Z,-17609.17
2024-05-09T23:45:38.502Z,-17609.17
2024-05-09T23:48:06.898Z,-17609.17
2024-05-09T23:50:37.626Z,-17609.17
2024-05-09T23:53:08.444Z,-17609.17
2024-05-09T23:55:37.579Z,-17609.17
2024-05-09T23:58:06.378Z,-17609.17
